Terminal Aerodrome Forecast
Issued by NWS Mt. Holly, NJ

Home | Current Version | Previous Version | Text Only | Print | Product List | Glossary On
Versions: 1 2 3 4 5 6 7 8 9 10 11 12 13 14 15
000
FTUS41 KPHI 011137
TAFRDG
TAF
KRDG 011137Z 0112/0212 VRB02KT P6SM SCT035 OVC070
     FM011300 12004KT 4SM -SN OVC020
     FM011500 16003KT 1SM -SN OVC007
     FM012300 VRB02KT 1SM -FZRAPL OVC005
     FM020500 23005KT 4SM BR OVC008
     FM020700 27007KT 6SM BR OVC015
     FM020900 31010KT P6SM OVC035=

USA.gov is the U.S. government's official web portal to all federal, state and local government web resources and services.